Olivebridge, NY (12461)

2:00 PM EDT on July 28, 2016 (GMT -0400)
The Vly | | Change Station

Elev 880 ft 41.89 °N, 74.21 °W | Updated 8 seconds ago

Clear
Clear
85.9 °F
Feels Like 89 °F
N
0.0
Wind Variable Wind from NW
Gusts 0.0 mph

Today
High -- | Low -- °F
--% Chance of Precip.
Yesterday
High -- | Low -- °F
Precip. -- in
Pressure 29.87 in
Visibility 10.0 miles
Clouds Clear
Heat Index 89 °F
Dew Point 67 °F
Humidity 53%
Rainfall 0.01 in
Snow Depth Not available.
5:47 AM 8:19 PM
Waning Crescent, 30% visible
METAR KMGJ 281754Z AUTO VRB03KT 10SM CLR 33/18 A2987 RMK AO2 SLP113 T03280183 10328 20206 58017 TSNO
Pressure 29.87 in
Visibility 10.0 miles
Clouds Clear
Heat Index 89 °F
Dew Point 67 °F
Humidity 53%
Rainfall 0.01 in
Snow Depth Not available.
5:47 AM 8:19 PM
Waning Crescent, 30% visible
METAR KMGJ 281754Z AUTO VRB03KT 10SM CLR 33/18 A2987 RMK AO2 SLP113 T03280183 10328 20206 58017 TSNO

10-Day Weather Forecast

Almanac

Astronomy

Jul. 28, 2016 Rise Set
Actual Time
Civil Twilight
Nautical Twilight
Astronomical Twilight
Moon
Length of Visible Light
Length of Day
Tomorrow will be .
, % of the Moon is Illuminated

Today's Extremes

State Highs State Lows

Community

WunderPhotos

Upload Photos

1,928,163 photos uploaded!

WunderBlog® & News

Nearby

Air Quality

  Air Quality AQ Index Pollutant
Not available.

Snow Depth

Station Depth Elevation

Earthquake Activity

City Distance Mag. Time & Date
Minimum magnitude displayed is 2.5.

Coastal Water Temperatures

Place Temperature

Stations

Nearby Weather Stations

Station Location Temp. Windchill Dew Point Humidity Wind Precip. Elev Updated Type
                   

Watches & Warnings

There are currently no watches in effect.